Friday, October 20, 2017, 9:22 PM EDT
Back to Local

KSYR, Syracuse Hancock International Airport

Location: Syracuse, NY, United States Lat: 43.117
Local Time: 9:22 PM EDT ( 1:22 GMT) Lon: -76.1
Time Zone: US/Eastern Elev: 410 ft

Show me the last for .
Show Decoded

2017-10-20 20:54 METAR KSYR 210054Z 11003KT 10SM FEW250 10/05 A3019 RMK AO2 SLP220 T01000050 =
2017-10-20 19:54 METAR KSYR 202354Z 00000KT 10SM FEW250 12/03 A3019 RMK AO2 SLP220 T01170033
                 10194 20111 53001 =
2017-10-20 18:54 METAR KSYR 202254Z 00000KT 10SM FEW250 13/03 A3019 RMK AO2 SLP220 T01330028 =
2017-10-20 17:54 METAR KSYR 202154Z 27005KT 10SM FEW220 SCT260 16/02 A3018 RMK AO2 SLP217
                 T01560022 =
2017-10-20 16:54 METAR KSYR 202054Z 25007KT 10SM FEW220 18/01 A3018 RMK AO2 SLP218 FEW V SCT
                 T01830011 58005 =
2017-10-20 15:54 METAR KSYR 201954Z 27008KT 10SM FEW220 19/01 A3019 RMK AO2 SLP221 T01890011 =
2017-10-20 14:54 METAR KSYR 201854Z 28008KT 10SM FEW200 19/01 A3019 RMK AO2 SLP221 T01940011 =
2017-10-20 13:54 METAR KSYR 201754Z 30009KT 10SM FEW250 19/02 A3020 RMK AO2 SLP223 T01890022
                 10189 20094 58010 $ =
2017-10-20 12:54 METAR KSYR 201654Z 29010KT 10SM FEW180 18/03 A3022 RMK AO2 SLP229 T01830028 $ =
2017-10-20 11:54 METAR KSYR 201554Z 29008KT 10SM FEW200 17/05 A3023 RMK AO2 SLP234 T01670050 $ =
2017-10-20 10:54 METAR KSYR 201454Z 29007KT 10SM FEW200 15/06 A3023 RMK AO2 SLP234 T01500061
                 51015 $ =
2017-10-20 09:54 METAR KSYR 201354Z 26007KT 10SM FEW200 14/07 A3023 RMK AO2 SLP233 T01390067 $ =
2017-10-20 08:54 METAR KSYR 201254Z 26007KT 10SM SCT200 12/06 A3021 RMK AO2 SLP228 T01170056 $ =
2017-10-20 07:54 METAR KSYR 201154Z 26008KT 10SM SCT200 09/04 A3019 RMK AO2 SLP218 T00940044
                 10106 20083 53022 $ =
2017-10-20 06:54 METAR KSYR 201054Z 26009KT 10SM FEW200 09/04 A3016 RMK AO2 SLP210 T00940039 =
2017-10-20 05:54 METAR KSYR 200954Z 25007KT 10SM FEW200 09/04 A3014 RMK AO2 SLP201 T00890044 =
2017-10-20 04:54 METAR KSYR 200854Z 24008KT 10SM FEW200 10/04 A3012 RMK AO2 SLP197 T01000044
                 52009 =
2017-10-20 03:54 METAR KSYR 200754Z 25006KT 10SM FEW200 09/04 A3011 RMK AO2 SLP193 T00940044 =
2017-10-20 02:54 METAR KSYR 200654Z 26007KT 10SM FEW060 10/05 A3011 RMK AO2 SLP191 T01000050 =
2017-10-20 01:54 METAR KSYR 200554Z 26009KT 10SM FEW060 11/07 A3010 RMK AO2 SLP188 T01110067
                 10189 20106 51013 =
2017-10-20 00:54 METAR KSYR 200454Z 27009KT 10SM FEW060 12/07 A3009 RMK AO2 SLP184 T01220072
                 402220078 =
2017-10-19 23:54 METAR KSYR 200354Z 27009KT 10SM FEW060 14/09 A3008 RMK AO2 SLP182 T01390089 =
2017-10-19 22:54 METAR KSYR 200254Z 26010KT 10SM FEW060 14/09 A3006 RMK AO2 SLP175 T01440094
                 51014 =
2017-10-19 21:54 METAR KSYR 200154Z 27011KT 10SM FEW060 16/10 A3005 RMK AO2 SLP173 FEW V SCT
                 T01610100 =

Support USWX by starting your Amazon purchase here.